Time;durP1;ratioP1;P1;durP2;ratioP2;P2;SDS_P1;SDS_P2;PMS_P1;PMS_P2;Temp;Humidity;BMP_temperature;BMP_pressure;BME280_temperature;BME280_humidity;BME280_pressure;Samples;Min_cycle;Max_cycle;Signal;HPM_P1;HPM_P2
2022/01/16 00:00:46;;;;;;;6.90;5.50;;;4.50;99.90;;;;;;5095032;28;20190;-79
2022/01/16 00:05:59;;;;;;;6.77;5.17;;;4.50;99.90;;;;;;5089097;28;20195;-77
2022/01/16 00:08:27;;;;;;;7.50;5.53;;;4.50;99.90;;;;;;5079347;28;20200;-69
2022/01/16 00:10:55;;;;;;;7.60;5.53;;;4.50;99.90;;;;;;5093061;28;20214;-75
2022/01/16 00:13:20;;;;;;;9.00;6.60;;;4.50;99.90;;;;;;5096551;28;20171;-79
2022/01/16 00:15:48;;;;;;;6.90;5.33;;;4.50;99.90;;;;;;5107392;28;20225;-79
2022/01/16 00:18:23;;;;;;;5.77;5.17;;;4.50;99.90;;;;;;5085273;28;20176;-76
2022/01/16 00:20:50;;;;;;;6.17;4.97;;;4.50;99.90;;;;;;5099689;28;20265;-76
2022/01/16 00:23:27;;;;;;;6.70;5.10;;;4.50;99.90;;;;;;5093618;28;20224;-79
2022/01/16 00:25:56;;;;;;;5.70;4.90;;;4.50;99.90;;;;;;5103905;28;20212;-73
2022/01/16 00:28:23;;;;;;;6.00;5.00;;;4.50;99.90;;;;;;5107868;28;20200;-76
2022/01/16 00:30:50;;;;;;;6.63;5.10;;;4.50;99.90;;;;;;5093195;28;20230;-76
2022/01/16 00:33:19;;;;;;;5.57;4.97;;;4.50;99.90;;;;;;5091300;28;20267;-74
2022/01/16 00:35:47;;;;;;;5.97;4.90;;;4.50;99.90;;;;;;5092385;28;20168;-78
2022/01/16 00:38:13;;;;;;;6.30;5.13;;;4.50;99.90;;;;;;5090300;28;20362;-78
2022/01/16 00:40:41;;;;;;;5.67;4.73;;;4.50;99.90;;;;;;5092606;28;20180;-77
2022/01/16 00:43:07;;;;;;;5.70;4.77;;;4.50;99.90;;;;;;5104555;28;20196;-79
2022/01/16 00:45:37;;;;;;;5.93;4.87;;;4.50;99.90;;;;;;5088196;28;20172;-76
2022/01/16 00:48:04;;;;;;;5.57;4.60;;;4.50;99.90;;;;;;5086723;28;20324;-77
2022/01/16 00:50:31;;;;;;;6.20;4.70;;;4.50;99.90;;;;;;5092835;28;20209;-77
2022/01/16 00:53:00;;;;;;;5.90;4.67;;;4.50;99.90;;;;;;5102694;27;20225;-75
2022/01/16 00:55:27;;;;;;;5.63;4.43;;;4.60;99.90;;;;;;5088785;28;20176;-79
2022/01/16 00:57:57;;;;;;;5.80;4.47;;;4.60;99.90;;;;;;5100009;28;20186;-79
2022/01/16 01:00:23;;;;;;;4.97;4.40;;;4.60;99.90;;;;;;5096366;28;20183;-77
2022/01/16 01:02:48;;;;;;;5.47;4.33;;;4.60;99.90;;;;;;5092355;28;20203;-71
2022/01/16 01:05:19;;;;;;;5.40;4.60;;;4.60;99.90;;;;;;5096718;28;20204;-78
2022/01/16 01:07:47;;;;;;;6.33;4.70;;;4.60;99.90;;;;;;5096470;28;20199;-78
2022/01/16 01:10:12;;;;;;;5.43;4.13;;;4.60;99.90;;;;;;5095966;28;20180;-71
2022/01/16 01:12:52;;;;;;;5.27;4.17;;;4.60;99.90;;;;;;5095133;28;20192;-71
2022/01/16 01:15:30;;;;;;;4.83;4.13;;;4.60;99.90;;;;;;5087471;28;20449;-77
2022/01/16 01:17:58;;;;;;;4.63;3.90;;;4.60;99.90;;;;;;5091355;28;20179;-70
2022/01/16 01:20:25;;;;;;;4.93;4.10;;;4.60;99.90;;;;;;5099296;28;20183;-77
2022/01/16 01:22:52;;;;;;;4.60;3.90;;;4.60;99.90;;;;;;5115659;27;20204;-77
2022/01/16 01:25:19;;;;;;;5.00;4.20;;;4.60;99.90;;;;;;5089370;28;20226;-73
2022/01/16 01:27:46;;;;;;;4.63;3.93;;;4.60;99.90;;;;;;5093179;28;20219;-79
2022/01/16 01:30:23;;;;;;;4.80;4.00;;;4.60;99.90;;;;;;5097314;28;20275;-77
2022/01/16 01:32:51;;;;;;;5.17;3.90;;;4.60;99.90;;;;;;5094703;28;20180;-75
2022/01/16 01:35:20;;;;;;;5.00;4.10;;;4.60;99.90;;;;;;5096982;28;20196;-77
2022/01/16 01:37:49;;;;;;;5.83;5.10;;;4.60;99.90;;;;;;5094778;28;20267;-76
2022/01/16 01:40:24;;;;;;;5.33;4.43;;;4.60;99.90;;;;;;5096598;28;20191;-71
2022/01/16 01:51:22;;;;;;;6.10;4.33;;;4.60;99.90;;;;;;5094854;28;20187;-76
2022/01/16 01:53:51;;;;;;;5.70;4.27;;;4.60;99.90;;;;;;5093816;28;20227;-76
2022/01/16 01:56:18;;;;;;;4.97;3.80;;;4.60;99.90;;;;;;5101144;28;20255;-80
2022/01/16 01:58:45;;;;;;;4.50;3.80;;;4.60;99.90;;;;;;5094619;28;20188;-76
2022/01/16 02:01:13;;;;;;;4.37;3.30;;;4.60;99.90;;;;;;5093386;28;20286;-79
2022/01/16 02:06:14;;;;;;;4.17;3.40;;;4.60;99.90;;;;;;5088210;28;20291;-74
2022/01/16 02:08:43;;;;;;;4.00;3.03;;;4.60;99.90;;;;;;5091926;28;20208;-71
2022/01/16 02:11:13;;;;;;;3.40;2.90;;;4.60;99.90;;;;;;5102837;28;20185;-74
2022/01/16 02:13:58;;;;;;;3.70;2.73;;;4.60;99.90;;;;;;5095191;28;20184;-76
2022/01/16 02:35:46;;;;;;;3.53;2.63;;;4.60;99.90;;;;;;5052652;28;20192;-77
2022/01/16 02:38:12;;;;;;;4.00;3.30;;;4.50;99.90;;;;;;5091586;28;20186;-75
2022/01/16 02:40:44;;;;;;;3.20;2.77;;;4.60;99.90;;;;;;5091509;28;20184;-78
2022/01/16 02:43:16;;;;;;;3.27;2.67;;;4.50;99.90;;;;;;5096893;28;20266;-79
2022/01/16 02:45:47;;;;;;;3.47;2.70;;;4.50;99.90;;;;;;5094228;28;20279;-75
2022/01/16 02:48:15;;;;;;;3.20;2.60;;;4.50;99.90;;;;;;5096121;28;20630;-74
2022/01/16 02:50:43;;;;;;;3.23;2.43;;;4.50;99.90;;;;;;5078456;28;20233;-74
2022/01/16 02:53:12;;;;;;;3.57;2.83;;;4.50;99.90;;;;;;5095403;28;20186;-72
2022/01/16 02:55:41;;;;;;;3.50;2.80;;;4.50;99.90;;;;;;5083855;28;20194;-73
2022/01/16 02:58:10;;;;;;;3.37;2.83;;;4.50;99.90;;;;;;5093140;28;20236;-69
2022/01/16 03:00:38;;;;;;;3.53;2.73;;;4.50;99.90;;;;;;5097975;28;20172;-76
2022/01/16 03:03:06;;;;;;;3.63;2.60;;;4.50;99.90;;;;;;5078440;28;20224;-68
2022/01/16 03:05:33;;;;;;;3.17;2.80;;;4.50;99.90;;;;;;5091080;28;20180;-73
2022/01/16 03:07:59;;;;;;;3.13;2.53;;;4.50;99.90;;;;;;5091891;28;20203;-77
2022/01/16 03:12:53;;;;;;;3.20;2.60;;;4.50;99.90;;;;;;5081621;28;20169;-78
2022/01/16 03:15:20;;;;;;;3.67;2.70;;;4.50;99.90;;;;;;5094032;28;20192;-79
2022/01/16 03:23:27;;;;;;;2.70;2.30;;;4.50;99.90;;;;;;5092583;28;20171;-76
2022/01/16 03:25:56;;;;;;;2.60;2.30;;;4.50;99.90;;;;;;5094370;28;20187;-76
2022/01/16 03:28:25;;;;;;;2.53;2.27;;;4.50;99.90;;;;;;5088489;28;20222;-74
2022/01/16 03:30:52;;;;;;;3.03;2.57;;;4.50;99.90;;;;;;5092788;28;20172;-77
2022/01/16 03:33:17;;;;;;;2.60;2.20;;;4.50;99.90;;;;;;5088821;28;20283;-77
2022/01/16 03:35:44;;;;;;;2.73;2.30;;;4.60;99.90;;;;;;5109685;28;20215;-74
2022/01/16 03:38:09;;;;;;;2.70;2.20;;;4.60;99.90;;;;;;5084477;28;20169;-71
2022/01/16 03:40:37;;;;;;;2.50;2.00;;;4.60;99.90;;;;;;5086582;28;20167;-76
2022/01/16 03:43:13;;;;;;;2.73;2.30;;;4.60;99.90;;;;;;5098846;28;20200;-77
2022/01/16 03:45:44;;;;;;;3.20;2.50;;;4.60;99.90;;;;;;5089176;28;20199;-76
2022/01/16 03:48:13;;;;;;;2.60;2.17;;;4.60;99.90;;;;;;5097951;28;20245;-71
2022/01/16 03:50:39;;;;;;;2.53;2.00;;;4.60;99.90;;;;;;5087365;28;20193;-77
2022/01/16 03:53:06;;;;;;;2.60;2.10;;;4.70;99.90;;;;;;5092312;28;20184;-76
2022/01/16 03:55:33;;;;;;;3.00;2.30;;;4.70;99.90;;;;;;5086685;28;20256;-70
2022/01/16 03:58:01;;;;;;;2.47;2.27;;;4.70;99.90;;;;;;5095070;28;20282;-73
2022/01/16 04:00:26;;;;;;;2.97;2.20;;;4.70;99.90;;;;;;5092640;28;20249;-78
2022/01/16 04:02:54;;;;;;;2.93;2.20;;;4.80;99.90;;;;;;5088911;28;20183;-74
2022/01/16 04:05:22;;;;;;;2.43;2.20;;;4.80;99.90;;;;;;5084730;28;20252;-74
2022/01/16 04:07:51;;;;;;;2.57;2.27;;;4.80;99.90;;;;;;5099456;28;20299;-75
2022/01/16 04:10:21;;;;;;;2.83;2.20;;;4.80;99.90;;;;;;5095147;28;20229;-75
2022/01/16 04:12:47;;;;;;;2.40;2.07;;;4.80;99.90;;;;;;5091774;28;20204;-78
2022/01/16 04:17:39;;;;;;;3.10;2.43;;;4.80;99.90;;;;;;5103942;28;20175;-75
2022/01/16 04:20:06;;;;;;;3.30;2.80;;;4.80;99.90;;;;;;5090425;28;20191;-74
2022/01/16 04:22:34;;;;;;;3.80;2.77;;;4.80;99.90;;;;;;5095196;28;20336;-75
2022/01/16 04:24:59;;;;;;;3.33;2.63;;;4.80;99.90;;;;;;5092912;28;20261;-76
2022/01/16 04:27:25;;;;;;;3.30;2.77;;;4.70;99.90;;;;;;5094111;28;20242;-77
2022/01/16 04:29:55;;;;;;;3.73;3.00;;;4.70;99.90;;;;;;5094671;28;20173;-74
2022/01/16 04:32:21;;;;;;;3.23;2.60;;;4.70;99.90;;;;;;5089888;28;20200;-73
2022/01/16 04:34:46;;;;;;;4.07;2.93;;;4.70;99.90;;;;;;5091199;28;20191;-77
2022/01/16 04:37:14;;;;;;;4.60;3.27;;;4.70;99.90;;;;;;5101775;28;20244;-74
2022/01/16 04:39:49;;;;;;;4.00;3.37;;;4.70;99.90;;;;;;5094496;28;20196;-74
2022/01/16 04:45:02;;;;;;;4.50;3.33;;;4.70;99.90;;;;;;5097043;28;20250;-78
2022/01/16 04:47:29;;;;;;;4.33;3.27;;;4.70;99.90;;;;;;5083673;28;20207;-76
2022/01/16 04:49:55;;;;;;;5.40;3.57;;;4.70;99.90;;;;;;5107299;27;20184;-76
2022/01/16 04:52:21;;;;;;;5.87;3.80;;;4.70;99.90;;;;;;5096549;28;20196;-77
2022/01/16 04:54:48;;;;;;;5.43;3.63;;;4.70;99.90;;;;;;5091689;28;20191;-69
2022/01/16 04:57:14;;;;;;;6.17;4.57;;;4.80;99.90;;;;;;5082394;28;20188;-76
2022/01/16 04:59:43;;;;;;;5.70;4.40;;;4.80;99.90;;;;;;5091273;28;20219;-75
2022/01/16 05:02:11;;;;;;;8.23;4.50;;;4.80;99.90;;;;;;5094298;28;20208;-72
2022/01/16 05:04:38;;;;;;;7.03;4.57;;;4.80;99.90;;;;;;5095998;28;20419;-73
2022/01/16 05:07:07;;;;;;;6.97;4.90;;;4.80;99.90;;;;;;5097783;28;20262;-72
2022/01/16 05:09:33;;;;;;;6.40;4.60;;;4.70;99.90;;;;;;5118783;27;20222;-76
2022/01/16 05:12:02;;;;;;;5.27;4.50;;;4.80;99.90;;;;;;5095959;28;20227;-75
2022/01/16 05:17:13;;;;;;;7.33;5.20;;;4.80;99.90;;;;;;5083597;28;20202;-77
2022/01/16 05:19:41;;;;;;;9.13;6.03;;;4.80;99.90;;;;;;5089885;28;20260;-78
2022/01/16 05:22:09;;;;;;;9.53;6.50;;;4.70;99.90;;;;;;5093272;28;20180;-77
2022/01/16 05:24:37;;;;;;;9.40;5.90;;;4.70;99.90;;;;;;5092063;28;20195;-72
2022/01/16 05:27:07;;;;;;;10.00;7.40;;;4.70;99.90;;;;;;5092709;28;20204;-77
2022/01/16 05:29:32;;;;;;;11.50;7.40;;;4.70;99.90;;;;;;5097227;28;20178;-78
2022/01/16 05:31:58;;;;;;;9.20;6.93;;;4.70;99.90;;;;;;5089680;28;20180;-76
2022/01/16 05:34:25;;;;;;;10.87;7.47;;;4.70;99.90;;;;;;5094757;28;20196;-77
2022/01/16 05:36:52;;;;;;;11.13;7.60;;;4.70;99.90;;;;;;5094337;28;20172;-77
2022/01/16 05:39:18;;;;;;;13.10;8.70;;;4.70;99.90;;;;;;5095039;28;20187;-74
2022/01/16 05:41:44;;;;;;;13.27;8.37;;;4.70;99.90;;;;;;5093756;28;20172;-78
2022/01/16 05:44:12;;;;;;;15.37;9.93;;;4.70;99.90;;;;;;5093813;28;20171;-74
2022/01/16 05:46:40;;;;;;;16.93;10.10;;;4.70;99.90;;;;;;5090313;28;20242;-77
2022/01/16 05:49:07;;;;;;;14.27;9.67;;;4.70;99.90;;;;;;5093676;28;20207;-78
2022/01/16 05:51:33;;;;;;;14.80;9.37;;;4.70;99.90;;;;;;5090482;28;20296;-73
2022/01/16 05:54:03;;;;;;;15.83;10.00;;;4.70;99.90;;;;;;5105304;27;20256;-73
2022/01/16 05:56:29;;;;;;;13.43;8.77;;;4.70;99.90;;;;;;5094232;28;20247;-71
2022/01/16 05:58:55;;;;;;;16.33;9.60;;;4.70;99.90;;;;;;5106722;27;20290;-75
2022/01/16 06:01:20;;;;;;;14.93;10.03;;;4.80;99.90;;;;;;5098975;28;20175;-78
2022/01/16 06:03:48;;;;;;;15.70;10.40;;;4.80;99.90;;;;;;5095577;28;20187;-73
2022/01/16 06:06:14;;;;;;;17.57;11.37;;;4.80;99.90;;;;;;5094846;28;20180;-77
2022/01/16 06:08:40;;;;;;;17.17;11.30;;;4.80;99.90;;;;;;5098527;28;20298;-78
2022/01/16 06:11:05;;;;;;;17.23;11.00;;;4.80;99.90;;;;;;5089682;28;20266;-76
2022/01/16 06:13:31;;;;;;;18.93;11.83;;;4.80;99.90;;;;;;5091470;28;20176;-71
2022/01/16 06:15:56;;;;;;;16.00;10.67;;;4.80;99.90;;;;;;5096809;28;20168;-73
2022/01/16 06:18:22;;;;;;;16.03;10.43;;;4.80;99.90;;;;;;5095812;28;20195;-74
2022/01/16 06:20:48;;;;;;;16.50;11.10;;;4.80;99.90;;;;;;5093706;28;20191;-77
2022/01/16 06:23:16;;;;;;;17.90;11.63;;;4.80;99.90;;;;;;5094478;28;20318;-77
2022/01/16 06:25:44;;;;;;;19.30;11.77;;;4.80;99.90;;;;;;5096947;28;20219;-76
2022/01/16 06:28:10;;;;;;;18.47;12.27;;;4.80;99.90;;;;;;5097920;28;20201;-79
2022/01/16 06:30:38;;;;;;;14.83;10.47;;;4.80;99.90;;;;;;5094172;28;20171;-79
2022/01/16 06:33:06;;;;;;;15.63;10.20;;;4.80;99.90;;;;;;5096343;28;20196;-77
2022/01/16 06:35:32;;;;;;;15.43;10.30;;;4.80;99.90;;;;;;5098200;28;20181;-77
2022/01/16 06:37:57;;;;;;;16.53;10.53;;;4.90;99.90;;;;;;5092830;28;20282;-79
2022/01/16 06:40:23;;;;;;;15.77;10.60;;;4.90;99.90;;;;;;5097186;28;20176;-76
2022/01/16 06:42:49;;;;;;;17.43;11.13;;;4.90;99.90;;;;;;5091592;28;20176;-75
2022/01/16 06:45:15;;;;;;;20.27;12.20;;;4.90;99.90;;;;;;5093661;28;20180;-74
2022/01/16 06:47:42;;;;;;;16.03;10.57;;;4.90;99.90;;;;;;5092452;28;20211;-76
2022/01/16 06:50:14;;;;;;;17.33;10.63;;;4.90;99.90;;;;;;5095812;28;20202;-75
2022/01/16 06:52:41;;;;;;;17.90;11.73;;;4.90;99.90;;;;;;5096657;28;20232;-77
2022/01/16 06:55:07;;;;;;;18.53;12.27;;;4.90;99.90;;;;;;5094912;28;20200;-73
2022/01/16 06:57:33;;;;;;;19.27;11.70;;;4.90;99.90;;;;;;5088540;28;20186;-76
2022/01/16 07:00:03;;;;;;;21.73;13.13;;;4.90;99.90;;;;;;5094360;28;20175;-77
2022/01/16 07:02:31;;;;;;;19.57;12.13;;;4.90;99.90;;;;;;5091341;28;20211;-79
2022/01/16 07:04:59;;;;;;;17.83;11.57;;;5.00;99.90;;;;;;5092240;28;20180;-77
2022/01/16 07:07:25;;;;;;;19.50;12.80;;;5.00;99.90;;;;;;5093614;28;20211;-73
2022/01/16 07:09:53;;;;;;;16.87;11.87;;;5.00;99.90;;;;;;5092564;28;20172;-76
2022/01/16 07:12:18;;;;;;;20.27;12.93;;;5.00;99.90;;;;;;5091420;28;20183;-75
2022/01/16 07:14:48;;;;;;;19.90;12.30;;;5.00;99.90;;;;;;5094589;28;20203;-77
2022/01/16 07:17:16;;;;;;;21.37;13.53;;;5.00;99.90;;;;;;5087009;28;20190;-77
2022/01/16 07:19:44;;;;;;;18.93;13.07;;;5.00;99.90;;;;;;5096555;28;20207;-79
2022/01/16 07:22:12;;;;;;;20.33;13.20;;;5.10;99.90;;;;;;5101459;28;20176;-79
2022/01/16 07:24:37;;;;;;;20.00;13.10;;;5.10;99.90;;;;;;5100133;28;20184;-72
2022/01/16 07:27:06;;;;;;;18.00;12.17;;;5.10;99.90;;;;;;5093649;28;20319;-77
2022/01/16 07:29:32;;;;;;;17.73;12.10;;;5.10;99.90;;;;;;5094139;28;20179;-73
2022/01/16 07:31:57;;;;;;;21.07;12.10;;;5.20;99.90;;;;;;5093325;28;20217;-69
2022/01/16 07:34:23;;;;;;;18.33;11.53;;;5.20;99.90;;;;;;5095663;28;20176;-79
2022/01/16 07:36:49;;;;;;;20.07;12.40;;;5.20;99.90;;;;;;5092094;28;20197;-79
2022/01/16 07:39:15;;;;;;;19.97;12.90;;;5.20;99.90;;;;;;5088487;28;20188;-77
2022/01/16 07:41:43;;;;;;;19.73;12.37;;;5.20;99.90;;;;;;5089541;28;20180;-73
2022/01/16 07:44:08;;;;;;;16.53;11.33;;;5.30;99.90;;;;;;5093352;28;20298;-76
2022/01/16 07:46:36;;;;;;;17.43;11.07;;;5.30;99.90;;;;;;5092829;28;20252;-72
2022/01/16 07:49:02;;;;;;;16.43;11.00;;;5.30;99.90;;;;;;5110088;28;20216;-78
2022/01/16 07:51:28;;;;;;;17.17;11.33;;;5.30;99.90;;;;;;5099932;28;20180;-77
2022/01/16 07:53:53;;;;;;;16.37;11.27;;;5.30;99.90;;;;;;5091394;28;20180;-75
2022/01/16 07:56:19;;;;;;;18.40;12.17;;;5.40;99.90;;;;;;5093206;28;20243;-77
2022/01/16 07:58:44;;;;;;;18.07;11.50;;;5.40;99.90;;;;;;5091308;28;20258;-76
2022/01/16 08:01:13;;;;;;;17.37;11.50;;;5.50;99.90;;;;;;5097244;28;20203;-76
2022/01/16 08:03:41;;;;;;;17.07;12.03;;;5.50;99.90;;;;;;5093696;28;20181;-74
2022/01/16 08:06:10;;;;;;;16.23;12.00;;;5.50;99.90;;;;;;5079580;28;20181;-75
2022/01/16 08:08:37;;;;;;;18.03;12.27;;;5.50;99.90;;;;;;5090229;28;20245;-78
2022/01/16 08:11:02;;;;;;;19.73;12.83;;;5.60;99.90;;;;;;5100146;28;20160;-75
2022/01/16 08:13:28;;;;;;;18.40;12.53;;;5.60;99.90;;;;;;5098200;28;20190;-73
2022/01/16 08:15:56;;;;;;;18.40;13.00;;;5.60;99.90;;;;;;5098876;28;20194;-71
2022/01/16 08:18:23;;;;;;;18.93;13.37;;;5.60;99.90;;;;;;5093333;28;20200;-73
2022/01/16 08:20:49;;;;;;;17.27;12.20;;;5.70;99.90;;;;;;5098737;28;20181;-72
2022/01/16 08:23:17;;;;;;;17.63;12.60;;;5.70;99.90;;;;;;5107261;28;20184;-73
2022/01/16 08:25:42;;;;;;;18.90;13.90;;;5.70;99.90;;;;;;5096225;28;20204;-70
2022/01/16 08:28:08;;;;;;;17.63;12.67;;;5.80;99.90;;;;;;5094410;28;20214;-68
2022/01/16 08:30:34;;;;;;;18.60;13.10;;;5.80;99.90;;;;;;5097026;28;20188;-71
2022/01/16 08:33:01;;;;;;;17.60;12.87;;;5.80;99.90;;;;;;5096010;28;20278;-72
2022/01/16 08:35:27;;;;;;;21.00;14.10;;;5.90;99.90;;;;;;5095864;28;20198;-73
2022/01/16 08:37:56;;;;;;;21.30;15.17;;;5.90;99.90;;;;;;5095858;28;20192;-70
2022/01/16 08:40:24;;;;;;;21.77;13.43;;;5.90;99.90;;;;;;5088972;28;20222;-70
2022/01/16 08:42:50;;;;;;;20.77;14.20;;;5.90;99.90;;;;;;5096003;28;20215;-72
2022/01/16 08:45:20;;;;;;;18.37;13.37;;;5.90;99.90;;;;;;5098138;28;20188;-73
2022/01/16 08:47:46;;;;;;;19.17;13.67;;;5.90;99.90;;;;;;5098323;28;20212;-72
2022/01/16 08:50:15;;;;;;;18.47;13.13;;;6.00;99.90;;;;;;5098782;28;20172;-71
2022/01/16 08:52:41;;;;;;;17.47;13.03;;;6.00;99.90;;;;;;5094982;28;20183;-70
2022/01/16 08:55:11;;;;;;;18.63;12.97;;;6.00;99.90;;;;;;5094606;28;20286;-71
2022/01/16 08:57:38;;;;;;;17.83;12.43;;;6.00;99.90;;;;;;5092126;28;20192;-72
2022/01/16 09:00:06;;;;;;;17.87;12.97;;;6.10;99.90;;;;;;5095836;28;20214;-73
2022/01/16 09:02:32;;;;;;;21.83;14.60;;;6.10;99.90;;;;;;5076521;28;20180;-70
2022/01/16 09:04:57;;;;;;;18.10;13.40;;;6.10;99.90;;;;;;5095262;28;20186;-72
2022/01/16 09:07:23;;;;;;;20.07;13.67;;;6.10;99.90;;;;;;5098728;28;20199;-72
2022/01/16 09:09:49;;;;;;;17.30;12.83;;;6.20;99.90;;;;;;5092714;28;20273;-73
2022/01/16 09:12:14;;;;;;;18.73;13.47;;;6.20;99.90;;;;;;5100782;28;20203;-72
2022/01/16 09:14:40;;;;;;;18.10;13.77;;;6.20;99.90;;;;;;5105623;28;20176;-72
2022/01/16 09:17:06;;;;;;;18.07;13.90;;;6.20;99.90;;;;;;5104732;28;20409;-72
2022/01/16 09:19:31;;;;;;;18.93;12.93;;;6.20;99.90;;;;;;5096439;28;20279;-72
2022/01/16 09:21:59;;;;;;;16.67;12.67;;;6.30;99.90;;;;;;5094483;28;20198;-72
2022/01/16 09:24:25;;;;;;;15.17;11.73;;;6.30;99.90;;;;;;5094479;28;20195;-72
2022/01/16 09:26:54;;;;;;;16.87;12.47;;;6.30;99.90;;;;;;5087331;28;20196;-68
2022/01/16 09:29:21;;;;;;;17.90;13.27;;;6.30;99.90;;;;;;5096841;28;20206;-72
2022/01/16 09:31:46;;;;;;;17.23;12.83;;;6.30;99.90;;;;;;5094151;28;20176;-72
2022/01/16 09:34:12;;;;;;;17.90;12.43;;;6.40;99.90;;;;;;5091082;28;20180;-65
2022/01/16 09:36:38;;;;;;;17.53;12.50;;;6.40;99.90;;;;;;5096398;28;20180;-72
2022/01/16 09:39:06;;;;;;;16.73;12.33;;;6.40;99.90;;;;;;5094024;28;20176;-71
2022/01/16 09:41:36;;;;;;;17.97;13.17;;;6.40;99.90;;;;;;5098144;28;20206;-72
2022/01/16 09:44:03;;;;;;;17.30;12.57;;;6.50;99.90;;;;;;5098232;28;20175;-72
2022/01/16 09:46:29;;;;;;;15.97;12.10;;;6.50;99.90;;;;;;5094769;28;20202;-72
2022/01/16 09:48:55;;;;;;;17.87;12.67;;;6.50;99.90;;;;;;5094855;28;20202;-71
2022/01/16 09:51:23;;;;;;;16.47;12.60;;;6.60;99.90;;;;;;5096617;28;20164;-72
2022/01/16 09:53:49;;;;;;;17.93;12.50;;;6.60;99.90;;;;;;5096366;28;20196;-74
2022/01/16 09:56:15;;;;;;;19.23;13.47;;;6.60;99.90;;;;;;5097120;28;20207;-71
2022/01/16 09:58:41;;;;;;;17.13;12.10;;;6.60;99.90;;;;;;5095855;28;20283;-72
2022/01/16 10:01:09;;;;;;;17.20;12.07;;;6.70;99.90;;;;;;5091791;28;20263;-72
2022/01/16 10:03:40;;;;;;;18.40;12.67;;;6.70;99.90;;;;;;5094445;28;20172;-72
2022/01/16 10:06:20;;;;;;;17.00;11.90;;;6.70;99.90;;;;;;5095449;28;20188;-72
2022/01/16 10:08:54;;;;;;;16.93;12.20;;;6.70;99.90;;;;;;5090547;28;20268;-69
2022/01/16 10:11:40;;;;;;;18.40;12.03;;;6.80;99.90;;;;;;5088821;28;20192;-71
2022/01/16 10:14:21;;;;;;;15.73;12.10;;;6.80;99.90;;;;;;5092954;28;20221;-72
2022/01/16 10:16:49;;;;;;;14.73;11.03;;;6.80;99.90;;;;;;5092064;28;20196;-70
2022/01/16 10:19:21;;;;;;;14.23;10.80;;;6.90;99.90;;;;;;5091836;28;20177;-72
2022/01/16 10:21:47;;;;;;;13.67;9.90;;;6.90;99.90;;;;;;5093694;28;20197;-71
2022/01/16 10:24:16;;;;;;;14.20;10.20;;;6.90;99.90;;;;;;5100933;28;20172;-72
2022/01/16 10:26:44;;;;;;;17.70;12.00;;;7.00;99.90;;;;;;5096938;28;20219;-72
2022/01/16 10:29:20;;;;;;;15.90;11.23;;;7.00;99.90;;;;;;5085664;28;20205;-72
2022/01/16 10:31:47;;;;;;;16.73;11.27;;;7.00;99.90;;;;;;5093821;28;20183;-72
2022/01/16 10:34:32;;;;;;;15.17;10.27;;;7.10;99.90;;;;;;5094974;28;20196;-72
2022/01/16 10:37:00;;;;;;;14.53;10.53;;;7.10;99.90;;;;;;5091622;28;20183;-71
2022/01/16 10:39:26;;;;;;;16.37;10.80;;;7.20;99.90;;;;;;5096092;28;20172;-72
2022/01/16 10:42:20;;;;;;;15.87;10.83;;;7.20;99.90;;;;;;5100335;28;20172;-72
2022/01/16 10:44:54;;;;;;;15.37;10.53;;;7.30;99.90;;;;;;5083671;28;20274;-71
2022/01/16 10:47:44;;;;;;;14.37;10.57;;;7.30;99.90;;;;;;5097397;28;20268;-73
2022/01/16 10:50:15;;;;;;;15.17;10.10;;;7.40;99.90;;;;;;5088237;28;20172;-73
2022/01/16 10:52:51;;;;;;;14.33;9.50;;;7.40;99.90;;;;;;5100081;28;20196;-72
2022/01/16 10:55:31;;;;;;;13.83;9.53;;;7.40;99.90;;;;;;5085459;28;20556;-72
2022/01/16 10:58:13;;;;;;;13.97;9.40;;;7.40;99.90;;;;;;5092477;28;20200;-75
2022/01/16 11:00:45;;;;;;;12.60;8.93;;;7.50;99.90;;;;;;5089753;28;20177;-70
2022/01/16 11:03:14;;;;;;;11.90;8.57;;;7.40;99.90;;;;;;5093909;28;20200;-72
2022/01/16 11:05:47;;;;;;;14.07;9.20;;;7.50;99.90;;;;;;5087849;28;20172;-70
2022/01/16 11:08:14;;;;;;;12.83;9.27;;;7.50;99.90;;;;;;5095219;28;20207;-72
2022/01/16 11:10:41;;;;;;;12.00;8.10;;;7.50;99.90;;;;;;5094125;28;20168;-71
2022/01/16 11:13:08;;;;;;;13.67;8.60;;;7.50;99.90;;;;;;5093268;28;20183;-72
2022/01/16 11:15:36;;;;;;;12.13;7.73;;;7.50;99.90;;;;;;5095359;28;20188;-70
2022/01/16 11:18:05;;;;;;;12.50;8.10;;;7.60;99.90;;;;;;5086653;28;20179;-72
2022/01/16 11:20:35;;;;;;;11.70;8.03;;;7.60;99.90;;;;;;5089643;28;20238;-71
2022/01/16 11:26:05;;;;;;;10.30;7.17;;;7.60;99.90;;;;;;5044914;28;20200;-72
2022/01/16 11:28:37;;;;;;;10.77;8.13;;;7.70;99.90;;;;;;5096012;28;20191;-72
2022/01/16 11:31:06;;;;;;;12.73;8.47;;;7.70;99.90;;;;;;5091412;28;20228;-70
2022/01/16 11:33:34;;;;;;;11.67;8.67;;;7.70;99.90;;;;;;5087758;28;20184;-68
2022/01/16 11:36:11;;;;;;;11.77;8.43;;;7.70;99.90;;;;;;5093875;28;20207;-72
2022/01/16 11:38:50;;;;;;;11.30;7.93;;;7.70;99.90;;;;;;5101026;28;20175;-71
2022/01/16 11:41:18;;;;;;;11.33;8.33;;;7.70;99.90;;;;;;5093634;28;20176;-72
2022/01/16 11:43:48;;;;;;;11.47;8.33;;;7.70;99.90;;;;;;5093462;28;20188;-72
2022/01/16 11:46:16;;;;;;;11.17;8.00;;;7.70;99.90;;;;;;5088514;28;20218;-71
2022/01/16 11:48:46;;;;;;;12.63;8.07;;;7.80;99.90;;;;;;5082655;28;20207;-71
2022/01/16 11:51:39;;;;;;;12.03;7.90;;;7.70;99.90;;;;;;5094393;28;20195;-71
2022/01/16 11:54:06;;;;;;;11.37;7.90;;;7.80;99.90;;;;;;5092101;28;20180;-68
2022/01/16 11:56:40;;;;;;;10.97;7.70;;;7.80;99.90;;;;;;5092348;28;20186;-72
2022/01/16 11:59:12;;;;;;;12.13;7.90;;;7.80;99.90;;;;;;5093875;28;20263;-71
2022/01/16 12:01:59;;;;;;;11.80;8.40;;;7.80;99.90;;;;;;5092998;28;20182;-73
2022/01/16 12:04:28;;;;;;;12.83;7.90;;;7.80;99.90;;;;;;5081043;28;20280;-71
2022/01/16 12:06:54;;;;;;;12.10;8.60;;;7.90;99.90;;;;;;5098467;28;20207;-73
2022/01/16 12:09:36;;;;;;;11.27;8.27;;;7.80;99.90;;;;;;5099309;28;20175;-73
2022/01/16 12:12:05;;;;;;;11.83;7.70;;;7.90;99.90;;;;;;5097524;28;20179;-72
2022/01/16 12:14:47;;;;;;;13.67;8.63;;;7.90;99.90;;;;;;5091690;28;20192;-73
2022/01/16 12:17:29;;;;;;;13.33;8.37;;;7.90;99.90;;;;;;5092631;28;20172;-73
2022/01/16 12:20:13;;;;;;;11.53;8.17;;;7.90;99.90;;;;;;5091481;28;20179;-73
2022/01/16 12:22:46;;;;;;;11.20;7.90;;;7.90;99.90;;;;;;5095499;28;20196;-73
2022/01/16 12:25:42;;;;;;;13.57;9.53;;;7.90;99.90;;;;;;5092267;28;20249;-73
2022/01/16 12:28:11;;;;;;;10.73;7.80;;;7.90;99.90;;;;;;5089362;28;20211;-72
2022/01/16 12:30:48;;;;;;;13.17;9.23;;;7.90;99.90;;;;;;5089047;28;20260;-69
2022/01/16 12:33:14;;;;;;;12.70;8.70;;;7.90;99.90;;;;;;5089283;28;20221;-73
2022/01/16 12:35:51;;;;;;;10.77;8.00;;;7.90;99.90;;;;;;5091828;28;20176;-72
2022/01/16 12:38:18;;;;;;;10.60;7.23;;;8.00;99.90;;;;;;5093074;28;20211;-71
2022/01/16 12:40:52;;;;;;;12.50;8.67;;;8.00;99.90;;;;;;5092215;28;20221;-71
2022/01/16 12:43:28;;;;;;;13.20;9.10;;;8.00;99.90;;;;;;5102658;28;20237;-72
2022/01/16 12:45:57;;;;;;;11.97;8.30;;;8.00;99.90;;;;;;5095821;28;20183;-73
2022/01/16 12:48:25;;;;;;;13.50;9.43;;;8.10;99.90;;;;;;5100009;28;20290;-73
2022/01/16 12:50:59;;;;;;;12.83;8.93;;;8.10;99.90;;;;;;5096582;28;20172;-73
2022/01/16 12:53:40;;;;;;;10.47;7.90;;;8.10;99.90;;;;;;5099363;28;20171;-73
2022/01/16 12:56:26;;;;;;;11.10;7.87;;;8.10;99.90;;;;;;5091642;28;20171;-73
2022/01/16 12:58:57;;;;;;;12.20;7.67;;;8.10;99.90;;;;;;5097712;28;20184;-73
2022/01/16 13:01:27;;;;;;;12.53;8.30;;;8.10;99.90;;;;;;5095036;28;20182;-73
2022/01/16 13:03:53;;;;;;;12.33;8.20;;;8.20;99.90;;;;;;5096134;28;20176;-72
2022/01/16 13:06:29;;;;;;;10.53;7.70;;;8.20;99.90;;;;;;5097168;28;20176;-72
2022/01/16 13:09:07;;;;;;;11.77;8.10;;;8.20;99.90;;;;;;5098823;28;20190;-73
2022/01/16 13:11:42;;;;;;;11.20;8.03;;;8.20;99.90;;;;;;5095912;28;20191;-71
2022/01/16 13:14:11;;;;;;;11.87;8.03;;;8.20;99.90;;;;;;5092758;28;20209;-73
2022/01/16 13:16:39;;;;;;;10.40;7.97;;;8.20;99.90;;;;;;5095369;28;20188;-73
2022/01/16 13:19:17;;;;;;;10.67;8.47;;;8.20;99.90;;;;;;5097201;28;20309;-73
2022/01/16 13:21:58;;;;;;;11.70;8.27;;;8.20;99.90;;;;;;5091069;28;20259;-73
2022/01/16 13:24:23;;;;;;;12.33;8.70;;;8.10;99.90;;;;;;5098065;28;20183;-72
2022/01/16 13:26:49;;;;;;;12.40;8.47;;;8.10;99.90;;;;;;5090041;28;20200;-72
2022/01/16 13:29:18;;;;;;;11.27;7.77;;;8.10;99.90;;;;;;5095857;28;20295;-73
2022/01/16 13:31:44;;;;;;;12.43;8.87;;;8.10;99.90;;;;;;5093791;28;20237;-70
2022/01/16 13:34:19;;;;;;;12.33;9.20;;;8.10;99.90;;;;;;5091075;28;20249;-73
2022/01/16 13:36:57;;;;;;;12.13;8.57;;;8.10;99.90;;;;;;5094187;28;20171;-70
2022/01/16 13:39:42;;;;;;;11.47;8.53;;;8.10;99.90;;;;;;5099458;28;20649;-72
2022/01/16 13:42:22;;;;;;;12.73;8.73;;;8.10;99.90;;;;;;5092364;28;20188;-72
2022/01/16 13:44:52;;;;;;;12.07;8.37;;;8.10;99.90;;;;;;5094402;28;20176;-71
2022/01/16 13:47:20;;;;;;;12.23;9.17;;;8.00;99.90;;;;;;5095725;28;20210;-71